Londyn, Wielka Brytania

17:52 BST dnia 02-wrzesień-2015 (GMT +0100)
Heathrow | | Change Station
CLOSE
Current Station
Lotnisko
Location: London,
n.p.m.: 79 ft
Najbliższa stacja pogodowa

Wysokość 79 ft 51.48 °N, 0.46 °W | Updated 32 minutes ago

Partly Cloudy
niewielkie zachmurzenie
63 ° F
Odczuwalna 63 ° F
Płn.
8
Wiatr zmienny Wiatr od PnZd

Dziś
Wysoka -- | Niska -- ° F
--% Prawdop. opadów
Wczoraj
Wysoka -- | Niska -- ° F
Precip. -- cali
6:15 AM 7:46 PM
Zmniejszający się Księżyc, 79% visible
Ciśnienie 30.01 cali
Widzialność 6.2 mil
chmury Niewiele 3900 ft
Punkt rosy 45 ° F
Wilgotność 52%
Opady deszczu 0.00 cali
grubość pokrywy śnieżnej Niedostępne.
UV 2 z 12
Pyłki Niedostępne.
Jakość powietrza Niedostępne.
Flu Activity Niedostępne.
METAR EGLL 021620Z 31007KT 280V340 9999 FEW039 17/07 Q1016 NOSIG
Ciśnienie 30.01 cali
Widzialność 6.2 mil
chmury Niewiele 3900 ft
Punkt rosy 45 ° F
Wilgotność 52%
Opady deszczu 0.00 cali
grubość pokrywy śnieżnej Niedostępne.
UV 2 z 12
Pyłki Niedostępne.
Jakość powietrza Niedostępne.
Flu Activity Niedostępne.
METAR EGLL 021620Z 31007KT 280V340 9999 FEW039 17/07 Q1016 NOSIG

10-Day Weather Forecast

×

Almanac

Astronomia

Sep. 02, 2015 Wschód Zachów
Aktualny czas
Zmierzch cywilny
Zmierzch żeglarski
świt/zmierzch astronomiczny
Księżyc
całkowite oświetlenie
Długość dnia
Tomorrow will be .
, % of the Moon is Illuminated

Dzisiejsze ekstrema

Country Highs Country Lows

Community

WunderPhotos

Upload Photos

1,851,783 zdjęcia zostały przesłane!

WunderBlogs® & News

Nearby

Jakość powietrza

  Jakość powietrza czynnik AQ Zanieczyszczenie
Not available.

Głębokość pokrywy śnieżnej

Station Depth n.p.m.

Aktywność sejsmiczna

Miejscowość Distance Mag. Time & Date
Minimum magnitude displayed is 2.5.

Temperatury wody na wybrzeżu

Miejsce Temperatura

Stations

Najbliższa stacja pogodowa

Lokalizacja stacji Temp. czynnik chłodzący wiatru Punkt rosy Wilgotność Wiatr Precip. Wysokość Uaktualniono Typ